Lady Washington — WAA2820 — position and weather

sailwx.info

Track history (hours):
 
Tides and Currents Weather Stations Pressure Air Temp Water Temp Dewpoint Dewpoint Depression Visibility Wind Speed Wind Dir Waves Ship Positions

Lady Washington (United States)

Ship's website: http://www.historicalseaport.org/LadyWashington.htm

Owner: GRAYS HARBOR HISTORICAL SEAPORT AUTHORIT, ABERDEEN, WA. More information available from US FCC via Universal Licensing System and Coast Guard Vessel Documentation Center.

Last reported at 2019-Oct-23 20:27 UTC. Time now 2019-Dec-06 05:16 UTC.
Position N 48°25' W 124°43'.
Warning: this ship's position is 43 days out of date.

Length 34 m.

Type: Sailing vessel. MMSI: 366945360.

Date/timePositionNaut miles runAvg speedWind from/ knotsBaromVisibWave heightAir tempDewpointWater temp
2019-Oct-23 20:27N 48°25' W 124°43'3 5.7
2019-Oct-23 20:00N 48°25' W 124°39'3 5.4
2019-Oct-23 19:30N 48°24' W 124°35'3 5.9
2019-Oct-23 19:00N 48°23' W 124°31'8 5.9
2019-Oct-23 17:41N 48°20' W 124°20'  
2019-Oct-16 23:39N 47°54' W 122°30'1 4.1
2019-Oct-16 23:25N 47°53' W 122°30'2 4.5
2019-Oct-16 22:58N 47°51' W 122°28'3 5.4
2019-Oct-16 22:22N 47°48' W 122°27'2 6.0
2019-Oct-16 21:57N 47°45' W 122°27'3 6.2
2019-Oct-16 21:30N 47°43' W 122°28'3 5.3
2019-Oct-16 21:00N 47°40' W 122°29'5 5.4
2019-Oct-16 20:00N 47°35' W 122°29'  
Track history (hours):
 
Tides and Currents Weather Stations Pressure Air Temp Water Temp Dewpoint Dewpoint Depression Visibility Wind Speed Wind Dir Waves Ship Positions

Lady Washington (United States)

Ship's website: http://www.historicalseaport.org/LadyWashington.htm

Owner: GRAYS HARBOR HISTORICAL SEAPORT AUTHORIT, ABERDEEN, WA. More information available from US FCC via Universal Licensing System and Coast Guard Vessel Documentation Center.

Last reported at 2019-Oct-23 20:27 UTC. Time now 2019-Dec-06 05:16 UTC.
Position N 48°25' W 124°43'.
Warning: this ship's position is 43 days out of date.

Length 34 m.

Type: Sailing vessel. MMSI: 366945360.

Date/timePositionNaut miles runAvg speedWind from/ knotsBaromVisibWave heightAir tempDewpointWater temp
2019-Oct-23 20:27N 48°25' W 124°43'3 5.7
2019-Oct-23 20:00N 48°25' W 124°39'3 5.4
2019-Oct-23 19:30N 48°24' W 124°35'3 5.9
2019-Oct-23 19:00N 48°23' W 124°31'8 5.9
2019-Oct-23 17:41N 48°20' W 124°20'  
2019-Oct-16 23:39N 47°54' W 122°30'1 4.1
2019-Oct-16 23:25N 47°53' W 122°30'2 4.5
2019-Oct-16 22:58N 47°51' W 122°28'3 5.4
2019-Oct-16 22:22N 47°48' W 122°27'2 6.0
2019-Oct-16 21:57N 47°45' W 122°27'3 6.2
2019-Oct-16 21:30N 47°43' W 122°28'3 5.3
2019-Oct-16 21:00N 47°40' W 122°29'5 5.4
2019-Oct-16 20:00N 47°35' W 122°29'  

Dump ship's entire track history